Nunoa, Chile
Current Conditions -  °F | °C
As of 8:00 PM on Wednesday 17 Dec 2014 (Local Time) from SCTB Reporting Station
Few Clouds Few Clouds  
Wind Chill: 73°   Ceiling: Unl
Heat Index: 73°   Visibility: 6mi
Dew Point: 46°   Wind: 5mph
Humidity: 38%   Direction: 220°SW
Pressure: 30.06"   Gusts: NA
Location:  33.47°S, 70.6°W
Report Text: SCTB 180000Z 22004KT 9999 FEW060 23/08 Q1018
Loading
Personal Weather Stations






























Interactive Weather Map New forecast layout! Learn more

10-Day Weather Forecast

Advertisements
Track Severe Weather on mobile